Time;durP1;ratioP1;P1;durP2;ratioP2;P2;SDS_P1;SDS_P2;PMS_P1;PMS_P2;Temp;Humidity;BMP_temperature;BMP_pressure;BME280_temperature;BME280_humidity;BME280_pressure;Samples;Min_cycle;Max_cycle;Signal;HPM_P1;HPM_P2
2023/07/04 00:02:13;;;;;;;;;;;;;;;;;;5021339;28;93792;-71
2023/07/04 00:04:41;;;;;;;;;;;;;;;;;;5021773;28;93722;-70
2023/07/04 00:07:07;;;;;;;;;;;;;;;;;;5022556;27;92602;-70
2023/07/04 00:09:32;;;;;;;;;;;;;;;;;;5022940;28;93151;-71
2023/07/04 00:11:58;;;;;;;;;;;;;;;;;;5024978;27;92131;-71
2023/07/04 00:14:23;;;;;;;;;;;;;;;;;;5022591;27;92796;-71
2023/07/04 00:16:48;;;;;;;;;;;;;;;;;;5020560;27;92453;-71
2023/07/04 00:19:14;;;;;;;;;;;;;;;;;;5022528;28;93591;-70
2023/07/04 00:21:41;;;;;;;;;;;;;;;;;;5022617;27;92845;-70
2023/07/04 00:24:06;;;;;;;;;;;;;;;;;;5022956;28;92630;-70
2023/07/04 00:26:31;;;;;;;;;;;;;;;;;;5020535;27;93924;-70
2023/07/04 00:28:57;;;;;;;;;;;;;;;;;;5020310;28;93626;-70
2023/07/04 00:31:23;;;;;;;;;;;;;;;;;;5023302;27;92478;-71
2023/07/04 00:33:49;;;;;;;;;;;;;;;;;;5026883;28;95325;-70
2023/07/04 00:36:16;;;;;;;;;;;;;;;;;;5032850;27;91542;-70
2023/07/04 00:38:42;;;;;;;;;;;;;;;;;;5026356;27;92887;-70
2023/07/04 00:41:15;;;;;;;;;;;;;;;;;;5024610;28;92861;-70
2023/07/04 00:43:59;;;;;;;;;;;;;;;;;;5025507;27;93235;-70
2023/07/04 00:46:37;;;;;;;;;;;;;;;;;;5022127;28;93323;-69
2023/07/04 00:49:04;;;;;;;;;;;;;;;;;;5025951;27;92892;-70
2023/07/04 00:51:31;;;;;;;;;;;;;;;;;;5025724;27;92167;-71
2023/07/04 00:54:00;;;;;;;;;;;;;;;;;;5027183;27;93687;-70
2023/07/04 00:56:27;;;;;;;;;;;;;;;;;;5025793;28;92748;-71
2023/07/04 00:58:59;;;;;;;;;;;;;;;;;;5026051;28;93536;-70
2023/07/04 01:01:24;;;;;;;;;;;;;;;;;;5027192;28;91437;-70
2023/07/04 01:03:49;;;;;;;;;;;;;;;;;;5026250;28;92576;-70
2023/07/04 01:06:20;;;;;;;;;;;;;;;;;;5026266;28;92764;-70
2023/07/04 01:08:47;;;;;;;;;;;;;;;;;;5020853;28;95768;-70
2023/07/04 01:11:19;;;;;;;;;;;;;;;;;;5026011;27;92736;-70
2023/07/04 01:13:44;;;;;;;;;;;;;;;;;;5025559;28;93889;-70
2023/07/04 01:16:11;;;;;;;;;;;;;;;;;;5025072;28;92919;-70
2023/07/04 01:18:37;;;;;;;;;;;;;;;;;;5024404;28;95188;-70
2023/07/04 01:21:05;;;;;;;;;;;;;;;;;;5025709;27;95050;-70
2023/07/04 01:23:54;;;;;;;;;;;;;;;;;;5025915;27;93894;-70
2023/07/04 01:26:34;;;;;;;;;;;;;;;;;;5024213;28;93688;-71
2023/07/04 01:29:01;;;;;;;;;;;;;;;;;;5018988;28;92878;-71
2023/07/04 01:31:27;;;;;;;;;;;;;;;;;;5024720;27;92640;-70
2023/07/04 01:33:53;;;;;;;;;;;;;;;;;;5024684;28;93612;-71
2023/07/04 01:36:22;;;;;;;;;;;;;;;;;;5025025;28;94740;-71
2023/07/04 01:38:47;;;;;;;;;;;;;;;;;;5028345;27;93067;-72
2023/07/04 01:41:12;;;;;;;;;;;;;;;;;;5022744;27;94094;-71
2023/07/04 01:43:39;;;;;;;;;;;;;;;;;;5024271;28;92785;-71
2023/07/04 01:46:04;;;;;;;;;;;;;;;;;;5024867;27;93756;-69
2023/07/04 01:48:30;;;;;;;;;;;;;;;;;;5025251;27;92787;-71
2023/07/04 01:50:55;;;;;;;;;;;;;;;;;;5026029;27;92296;-69
2023/07/04 01:53:20;;;;;;;;;;;;;;;;;;5025853;28;92837;-70
2023/07/04 01:55:46;;;;;;;;;;;;;;;;;;5025277;28;93014;-71
2023/07/04 01:58:11;;;;;;;;;;;;;;;;;;5022612;28;93733;-70
2023/07/04 02:00:36;;;;;;;;;;;;;;;;;;5031673;27;94464;-71
2023/07/04 02:03:02;;;;;;;;;;;;;;;;;;5023459;28;93292;-70
2023/07/04 02:05:27;;;;;;;;;;;;;;;;;;5023525;28;92987;-70
2023/07/04 02:07:53;;;;;;;;;;;;;;;;;;5024658;27;94147;-69
2023/07/04 02:10:18;;;;;;;;;;;;;;;;;;5019659;28;92618;-68
2023/07/04 02:12:43;;;;;;;;;;;;;;;;;;5019182;27;93667;-70
2023/07/04 02:15:09;;;;;;;;;;;;;;;;;;5022965;28;92188;-69
2023/07/04 02:17:34;;;;;;;;;;;;;;;;;;5022313;28;92548;-68
2023/07/04 02:19:59;;;;;;;;;;;;;;;;;;5022681;27;92740;-69
2023/07/04 02:22:24;;;;;;;;;;;;;;;;;;5021928;28;94033;-68
2023/07/04 02:24:50;;;;;;;;;;;;;;;;;;5019911;28;93488;-69
2023/07/04 02:27:15;;;;;;;;;;;;;;;;;;5020660;28;93714;-71
2023/07/04 02:29:40;;;;;;;;;;;;;;;;;;5020559;28;93065;-69
2023/07/04 02:32:06;;;;;;;;;;;;;;;;;;5020863;28;92735;-69
2023/07/04 02:34:31;;;;;;;;;;;;;;;;;;5020777;28;93522;-70
2023/07/04 02:36:56;;;;;;;;;;;;;;;;;;5020202;28;93275;-70
2023/07/04 02:39:26;;;;;;;;;;;;;;;;;;5021652;28;93952;-69
2023/07/04 02:41:51;;;;;;;;;;;;;;;;;;5021854;28;92559;-70
2023/07/04 02:44:16;;;;;;;;;;;;;;;;;;5024628;28;93141;-68
2023/07/04 02:46:41;;;;;;;;;;;;;;;;;;5022895;28;94505;-69
2023/07/04 02:49:06;;;;;;;;;;;;;;;;;;5018916;28;92467;-69
2023/07/04 02:51:33;;;;;;;;;;;;;;;;;;5019989;28;92749;-70
2023/07/04 02:53:58;;;;;;;;;;;;;;;;;;5013690;27;96908;-71
2023/07/04 02:56:23;;;;;;;;;;;;;;;;;;5018307;28;92265;-69
2023/07/04 02:58:48;;;;;;;;;;;;;;;;;;5022559;28;92685;-70
2023/07/04 03:01:14;;;;;;;;;;;;;;;;;;5020996;28;93696;-72
2023/07/04 03:03:39;;;;;;;;;;;;;;;;;;5025570;27;92336;-69
2023/07/04 03:06:05;;;;;;;;;;;;;;;;;;5018530;28;92878;-71
2023/07/04 03:08:30;;;;;;;;;;;;;;;;;;5022502;28;93751;-69
2023/07/04 03:10:55;;;;;;;;;;;;;;;;;;5019644;28;94233;-68
2023/07/04 03:13:20;;;;;;;;;;;;;;;;;;5017885;28;93635;-69
2023/07/04 03:15:46;;;;;;;;;;;;;;;;;;5019614;28;92855;-71
2023/07/04 03:18:11;;;;;;;;;;;;;;;;;;5021917;27;93654;-70
2023/07/04 03:20:36;;;;;;;;;;;;;;;;;;5021393;28;93164;-69
2023/07/04 03:23:01;;;;;;;;;;;;;;;;;;5020932;28;92675;-69
2023/07/04 03:25:27;;;;;;;;;;;;;;;;;;5027882;27;94626;-69
2023/07/04 03:27:52;;;;;;;;;;;;;;;;;;5013655;28;91973;-70
2023/07/04 03:30:17;;;;;;;;;;;;;;;;;;5018298;28;92850;-69
2023/07/04 03:32:42;;;;;;;;;;;;;;;;;;5019432;28;92903;-71
2023/07/04 03:35:08;;;;;;;;;;;;;;;;;;5018216;27;93394;-70
2023/07/04 03:37:34;;;;;;;;;;;;;;;;;;5022830;27;93264;-71
2023/07/04 03:39:59;;;;;;;;;;;;;;;;;;5021381;27;93455;-70
2023/07/04 03:42:25;;;;;;;;;;;;;;;;;;5022467;28;92788;-72
2023/07/04 03:44:50;;;;;;;;;;;;;;;;;;5021814;27;92693;-70
2023/07/04 03:47:16;;;;;;;;;;;;;;;;;;5024878;28;93259;-70
2023/07/04 03:49:41;;;;;;;;;;;;;;;;;;5020546;28;92578;-72
2023/07/04 03:52:06;;;;;;;;;;;;;;;;;;5020246;28;93166;-72
2023/07/04 03:54:32;;;;;;;;;;;;;;;;;;5019333;27;93265;-71
2023/07/04 03:56:57;;;;;;;;;;;;;;;;;;5019817;28;92816;-73
2023/07/04 03:59:22;;;;;;;;;;;;;;;;;;5020546;28;95221;-72
2023/07/04 04:01:47;;;;;;;;;;;;;;;;;;5021311;28;93224;-71
2023/07/04 04:04:13;;;;;;;;;;;;;;;;;;5013530;28;95567;-68
2023/07/04 04:06:38;;;;;;;;;;;;;;;;;;5019372;27;94096;-70
2023/07/04 04:09:03;;;;;;;;;;;;;;;;;;5018334;28;93467;-70
2023/07/04 04:11:28;;;;;;;;;;;;;;;;;;5021583;28;93260;-71
2023/07/04 04:13:54;;;;;;;;;;;;;;;;;;5021950;28;95178;-70
2023/07/04 04:16:21;;;;;;;;;;;;;;;;;;5019696;28;92623;-70
2023/07/04 04:18:46;;;;;;;;;;;;;;;;;;5019322;28;92818;-69
2023/07/04 04:21:11;;;;;;;;;;;;;;;;;;5020163;28;92871;-70
2023/07/04 04:23:37;;;;;;;;;;;;;;;;;;5017525;28;93793;-71
2023/07/04 04:26:03;;;;;;;;;;;;;;;;;;5018513;28;94598;-69
2023/07/04 04:28:29;;;;;;;;;;;;;;;;;;5018624;28;93163;-71
2023/07/04 04:30:54;;;;;;;;;;;;;;;;;;5023360;28;93785;-68
2023/07/04 04:33:20;;;;;;;;;;;;;;;;;;5019863;28;93884;-68
2023/07/04 04:35:47;;;;;;;;;;;;;;;;;;5020111;28;92602;-69
2023/07/04 04:38:12;;;;;;;;;;;;;;;;;;5020225;27;92848;-68
2023/07/04 04:40:37;;;;;;;;;;;;;;;;;;5021093;28;92209;-70
2023/07/04 04:43:03;;;;;;;;;;;;;;;;;;5015128;28;92514;-71
2023/07/04 04:45:28;;;;;;;;;;;;;;;;;;5020454;28;93503;-68
2023/07/04 04:47:54;;;;;;;;;;;;;;;;;;5017064;28;95823;-68
2023/07/04 04:50:20;;;;;;;;;;;;;;;;;;5022569;28;95893;-69
2023/07/04 04:52:45;;;;;;;;;;;;;;;;;;5019592;27;93208;-69
2023/07/04 04:55:10;;;;;;;;;;;;;;;;;;5019230;27;93096;-68
2023/07/04 04:57:36;;;;;;;;;;;;;;;;;;5021508;28;93007;-68
2023/07/04 05:00:01;;;;;;;;;;;;;;;;;;5020834;28;94315;-69
2023/07/04 05:02:28;;;;;;;;;;;;;;;;;;5018793;28;93135;-69
2023/07/04 05:04:54;;;;;;;;;;;;;;;;;;5020907;28;92491;-71
2023/07/04 05:07:23;;;;;;;;;;;;;;;;;;5021601;28;92434;-69
2023/07/04 05:09:49;;;;;;;;;;;;;;;;;;5010352;28;95154;-68
2023/07/04 05:12:14;;;;;;;;;;;;;;;;;;5015842;28;93786;-69
2023/07/04 05:14:39;;;;;;;;;;;;;;;;;;5015346;28;93259;-69
2023/07/04 05:17:04;;;;;;;;;;;;;;;;;;5019025;28;93714;-72
2023/07/04 05:19:29;;;;;;;;;;;;;;;;;;5020873;28;92535;-69
2023/07/04 05:21:55;;;;;;;;;;;;;;;;;;5019566;27;92853;-69
2023/07/04 05:24:20;;;;;;;;;;;;;;;;;;5021958;27;94079;-72
2023/07/04 05:26:46;;;;;;;;;;;;;;;;;;5022218;28;94124;-70
2023/07/04 05:29:11;;;;;;;;;;;;;;;;;;5027011;27;95696;-69
2023/07/04 05:31:36;;;;;;;;;;;;;;;;;;5020343;28;92812;-71
2023/07/04 05:34:01;;;;;;;;;;;;;;;;;;5022830;28;92732;-69
2023/07/04 05:36:28;;;;;;;;;;;;;;;;;;5019242;28;93832;-69
2023/07/04 05:38:55;;;;;;;;;;;;;;;;;;5024153;28;92208;-72
2023/07/04 05:41:21;;;;;;;;;;;;;;;;;;5021755;28;93051;-76
2023/07/04 05:43:47;;;;;;;;;;;;;;;;;;5019120;28;93021;-75
2023/07/04 05:46:13;;;;;;;;;;;;;;;;;;5021042;27;92667;-77
2023/07/04 05:48:38;;;;;;;;;;;;;;;;;;5026839;27;95378;-77
2023/07/04 05:51:05;;;;;;;;;;;;;;;;;;5016286;28;93181;-69
2023/07/04 05:53:31;;;;;;;;;;;;;;;;;;5020280;28;93368;-71
2023/07/04 05:56:11;;;;;;;;;;;;;;;;;;5022052;28;92598;-71
2023/07/04 05:58:37;;;;;;;;;;;;;;;;;;5019020;27;93066;-71
2023/07/04 06:01:04;;;;;;;;;;;;;;;;;;5021791;27;93717;-71
2023/07/04 06:03:29;;;;;;;;;;;;;;;;;;5022176;27;92961;-69
2023/07/04 06:05:54;;;;;;;;;;;;;;;;;;5019979;28;92560;-72
2023/07/04 06:08:19;;;;;;;;;;;;;;;;;;5018784;28;94800;-71
2023/07/04 06:10:45;;;;;;;;;;;;;;;;;;5019056;28;92168;-72
2023/07/04 06:13:10;;;;;;;;;;;;;;;;;;5019512;27;93291;-69
2023/07/04 06:15:40;;;;;;;;;;;;;;;;;;5020667;28;93195;-70
2023/07/04 06:18:05;;;;;;;;;;;;;;;;;;5020301;28;92317;-72
2023/07/04 06:20:30;;;;;;;;;;;;;;;;;;5023330;28;92252;-73
2023/07/04 06:22:55;;;;;;;;;;;;;;;;;;5020074;28;93186;-72
2023/07/04 06:25:20;;;;;;;;;;;;;;;;;;5019213;28;93694;-69
2023/07/04 06:27:46;;;;;;;;;;;;;;;;;;5036058;27;94772;-69
2023/07/04 06:30:11;;;;;;;;;;;;;;;;;;5020357;28;92291;-68
2023/07/04 06:32:37;;;;;;;;;;;;;;;;;;5019033;27;92326;-71
2023/07/04 06:35:02;;;;;;;;;;;;;;;;;;5019344;28;92674;-71
2023/07/04 06:37:28;;;;;;;;;;;;;;;;;;5022104;27;92908;-72
2023/07/04 06:39:53;;;;;;;;;;;;;;;;;;5024016;27;93409;-71
2023/07/04 06:42:18;;;;;;;;;;;;;;;;;;5018490;28;92113;-70
2023/07/04 06:44:44;;;;;;;;;;;;;;;;;;5022957;28;92638;-74
2023/07/04 06:47:10;;;;;;;;;;;;;;;;;;5022746;27;92874;-74
2023/07/04 06:49:35;;;;;;;;;;;;;;;;;;5016075;27;95047;-73
2023/07/04 06:52:00;;;;;;;;;;;;;;;;;;5019086;27;93479;-73
2023/07/04 06:54:25;;;;;;;;;;;;;;;;;;5018356;28;94715;-73
2023/07/04 06:56:50;;;;;;;;;;;;;;;;;;5020904;28;92230;-72
2023/07/04 06:59:16;;;;;;;;;;;;;;;;;;5026024;28;93081;-73
2023/07/04 07:01:42;;;;;;;;;;;;;;;;;;5019937;27;93808;-73
2023/07/04 07:04:07;;;;;;;;;;;;;;;;;;5019877;28;93269;-72
2023/07/04 07:06:32;;;;;;;;;;;;;;;;;;5020470;27;93953;-73
2023/07/04 07:08:58;;;;;;;;;;;;;;;;;;5020959;28;92273;-72
2023/07/04 07:11:24;;;;;;;;;;;;;;;;;;5017567;28;95063;-72
2023/07/04 07:13:50;;;;;;;;;;;;;;;;;;5014710;28;93202;-73
2023/07/04 07:16:22;;;;;;;;;;;;;;;;;;5019479;27;93228;-73
2023/07/04 07:18:50;;;;;;;;;;;;;;;;;;5017483;28;93889;-77
2023/07/04 07:21:18;;;;;;;;;;;;;;;;;;5022599;28;93649;-76
2023/07/04 07:23:43;;;;;;;;;;;;;;;;;;5018089;28;93359;-72
2023/07/04 07:26:12;;;;;;;;;;;;;;;;;;5017494;28;93107;-74
2023/07/04 07:28:41;;;;;;;;;;;;;;;;;;5019421;27;94773;-74
2023/07/04 07:31:08;;;;;;;;;;;;;;;;;;5022498;28;91522;-73
2023/07/04 07:33:34;;;;;;;;;;;;;;;;;;5019710;27;92925;-75
2023/07/04 07:36:06;;;;;;;;;;;;;;;;;;5021018;27;93260;-74
2023/07/04 07:38:31;;;;;;;;;;;;;;;;;;5018163;28;93204;-73
2023/07/04 07:40:56;;;;;;;;;;;;;;;;;;5033605;27;96277;-73
2023/07/04 07:43:22;;;;;;;;;;;;;;;;;;5021804;28;93180;-74
2023/07/04 07:45:47;;;;;;;;;;;;;;;;;;5020948;28;92862;-74
2023/07/04 07:48:13;;;;;;;;;;;;;;;;;;5017703;27;95025;-74
2023/07/04 07:50:38;;;;;;;;;;;;;;;;;;5019442;28;93084;-74
2023/07/04 07:53:04;;;;;;;;;;;;;;;;;;5021507;28;92833;-74
2023/07/04 07:55:29;;;;;;;;;;;;;;;;;;5021394;27;92108;-74
2023/07/04 07:57:54;;;;;;;;;;;;;;;;;;5014062;27;93187;-74
2023/07/04 08:00:19;;;;;;;;;;;;;;;;;;5021886;28;93301;-74
2023/07/04 08:02:45;;;;;;;;;;;;;;;;;;5019113;28;93840;-74
2023/07/04 08:05:10;;;;;;;;;;;;;;;;;;5019555;28;92459;-74
2023/07/04 08:07:35;;;;;;;;;;;;;;;;;;5022108;27;93627;-74
2023/07/04 08:10:00;;;;;;;;;;;;;;;;;;5022127;28;92952;-74
2023/07/04 08:12:26;;;;;;;;;;;;;;;;;;5017574;28;92990;-74
2023/07/04 08:14:51;;;;;;;;;;;;;;;;;;5020161;27;92952;-74
2023/07/04 08:17:17;;;;;;;;;;;;;;;;;;5011018;27;92945;-73
2023/07/04 08:19:42;;;;;;;;;;;;;;;;;;5015781;27;92639;-74
2023/07/04 08:22:07;;;;;;;;;;;;;;;;;;5019845;28;92839;-73
2023/07/04 08:24:32;;;;;;;;;;;;;;;;;;5017074;28;93513;-74
2023/07/04 08:26:58;;;;;;;;;;;;;;;;;;5021127;28;95237;-74
2023/07/04 08:29:23;;;;;;;;;;;;;;;;;;5017972;28;92678;-74
2023/07/04 08:31:49;;;;;;;;;;;;;;;;;;5018278;27;93536;-74
2023/07/04 08:34:14;;;;;;;;;;;;;;;;;;5020072;27;95659;-74
2023/07/04 08:36:44;;;;;;;;;;;;;;;;;;5022075;28;92573;-74
2023/07/04 08:39:09;;;;;;;;;;;;;;;;;;5021675;27;92763;-74
2023/07/04 08:41:37;;;;;;;;;;;;;;;;;;5017655;27;93765;-70
2023/07/04 08:44:02;;;;;;;;;;;;;;;;;;5018170;28;92412;-74
2023/07/04 08:46:42;;;;;;;;;;;;;;;;;;5019107;28;92681;-74
2023/07/04 08:49:17;;;;;;;;;;;;;;;;;;5018720;28;93225;-74
2023/07/04 08:51:45;;;;;;;;;;;;;;;;;;5015925;28;95305;-74
2023/07/04 08:54:11;;;;;;;;;;;;;;;;;;5018914;27;93589;-74
2023/07/04 08:56:37;;;;;;;;;;;;;;;;;;5020322;27;92494;-74
2023/07/04 08:59:05;;;;;;;;;;;;;;;;;;5022165;28;92705;-74
2023/07/04 09:01:45;;;;;;;;;;;;;;;;;;5021165;28;93173;-74
2023/07/04 09:04:17;;;;;;;;;;;;;;;;;;5018097;28;93442;-74
2023/07/04 09:07:05;;;;;;;;;;;;;;;;;;5017542;28;93335;-72
2023/07/04 09:09:51;;;;;;;;;;;;;;;;;;5023432;28;92230;-75
2023/07/04 09:12:16;;;;;;;;;;;;;;;;;;5019880;28;93124;-75
2023/07/04 09:14:46;;;;;;;;;;;;;;;;;;5015123;28;95548;-75
2023/07/04 09:17:16;;;;;;;;;;;;;;;;;;5020203;27;94043;-75
2023/07/04 09:19:44;;;;;;;;;;;;;;;;;;5018611;28;94284;-74
2023/07/04 09:22:09;;;;;;;;;;;;;;;;;;5022990;28;93741;-77
2023/07/04 09:24:35;;;;;;;;;;;;;;;;;;5021257;28;92277;-75
2023/07/04 09:27:01;;;;;;;;;;;;;;;;;;5019262;28;94336;-75
2023/07/04 09:29:27;;;;;;;;;;;;;;;;;;5023363;28;93302;-76
2023/07/04 09:31:53;;;;;;;;;;;;;;;;;;5025863;28;92668;-75
2023/07/04 09:34:36;;;;;;;;;;;;;;;;;;5018546;27;94871;-76
2023/07/04 09:37:08;;;;;;;;;;;;;;;;;;5020798;28;92714;-75
2023/07/04 09:39:47;;;;;;;;;;;;;;;;;;5021690;28;93958;-75
2023/07/04 09:42:14;;;;;;;;;;;;;;;;;;5019878;28;93796;-75
2023/07/04 09:44:39;;;;;;;;;;;;;;;;;;5021510;27;92801;-75
2023/07/04 09:47:05;;;;;;;;;;;;;;;;;;5020300;27;92933;-75
2023/07/04 09:49:37;;;;;;;;;;;;;;;;;;5019381;28;93286;-72
2023/07/04 09:52:16;;;;;;;;;;;;;;;;;;5018876;28;92360;-72
2023/07/04 09:54:41;;;;;;;;;;;;;;;;;;5025746;28;92788;-72
2023/07/04 09:57:16;;;;;;;;;;;;;;;;;;5022271;27;92934;-72
2023/07/04 09:59:42;;;;;;;;;;;;;;;;;;5023141;28;93044;-74
2023/07/04 10:02:25;;;;;;;;;;;;;;;;;;5021493;28;93058;-73
2023/07/04 10:04:51;;;;;;;;;;;;;;;;;;5019739;28;92553;-72
2023/07/04 10:07:23;;;;;;;;;;;;;;;;;;5019721;28;95032;-73
2023/07/04 10:09:53;;;;;;;;;;;;;;;;;;5019988;28;93417;-72
2023/07/04 10:12:19;;;;;;;;;;;;;;;;;;5021704;27;92639;-73
2023/07/04 10:14:45;;;;;;;;;;;;;;;;;;5018184;28;94053;-72
2023/07/04 10:17:30;;;;;;;;;;;;;;;;;;5022126;28;95222;-73
2023/07/04 10:19:56;;;;;;;;;;;;;;;;;;5026324;27;93202;-72
2023/07/04 10:22:23;;;;;;;;;;;;;;;;;;5023754;28;95261;-76
2023/07/04 10:24:49;;;;;;;;;;;;;;;;;;5023858;27;91879;-80
2023/07/04 10:27:14;;;;;;;;;;;;;;;;;;5022611;28;92708;-76
2023/07/04 10:29:42;;;;;;;;;;;;;;;;;;5020503;27;93276;-76
2023/07/04 10:32:13;;;;;;;;;;;;;;;;;;5017726;28;93806;-78
2023/07/04 10:34:39;;;;;;;;;;;;;;;;;;5037432;27;95907;-80
2023/07/04 10:37:06;;;;;;;;;;;;;;;;;;5020027;27;93282;-78
2023/07/04 10:39:33;;;;;;;;;;;;;;;;;;5015521;28;92687;-70
2023/07/04 10:42:02;;;;;;;;;;;;;;;;;;5017886;27;93123;-77
2023/07/04 10:44:29;;;;;;;;;;;;;;;;;;5022498;27;93238;-72
2023/07/04 10:47:02;;;;;;;;;;;;;;;;;;5015069;28;93407;-72
2023/07/04 10:49:29;;;;;;;;;;;;;;;;;;5015702;28;95074;-79
2023/07/04 10:52:00;;;;;;;;;;;;;;;;;;5018680;28;93933;-73
2023/07/04 10:54:26;;;;;;;;;;;;;;;;;;5021296;27;92597;-75
2023/07/04 10:56:54;;;;;;;;;;;;;;;;;;5014459;28;95582;-71
2023/07/04 10:59:27;;;;;;;;;;;;;;;;;;5020694;27;92853;-71
2023/07/04 11:02:03;;;;;;;;;;;;;;;;;;5023049;28;92803;-72
2023/07/04 11:04:33;;;;;;;;;;;;;;;;;;5021318;28;92580;-72
2023/07/04 11:07:00;;;;;;;;;;;;;;;;;;5020428;28;93977;-72
2023/07/04 11:09:26;;;;;;;;;;;;;;;;;;5019546;27;92780;-72
2023/07/04 11:11:59;;;;;;;;;;;;;;;;;;5016417;27;92886;-72
2023/07/04 11:14:25;;;;;;;;;;;;;;;;;;5011838;28;93340;-72
2023/07/04 11:16:52;;;;;;;;;;;;;;;;;;5016746;27;93480;-72
2023/07/04 11:19:25;;;;;;;;;;;;;;;;;;5017800;28;93439;-71
2023/07/04 11:22:03;;;;;;;;;;;;;;;;;;5023787;28;93754;-72
2023/07/04 11:24:45;;;;;;;;;;;;;;;;;;5020727;27;92839;-72
2023/07/04 11:27:16;;;;;;;;;;;;;;;;;;5018004;28;93514;-72
2023/07/04 11:29:50;;;;;;;;;;;;;;;;;;5020103;27;92628;-72
2023/07/04 11:32:27;;;;;;;;;;;;;;;;;;5019195;28;94184;-72
2023/07/04 11:34:54;;;;;;;;;;;;;;;;;;5017221;28;96132;-72
2023/07/04 11:37:28;;;;;;;;;;;;;;;;;;5018613;27;93077;-72
2023/07/04 11:39:57;;;;;;;;;;;;;;;;;;5016971;27;91542;-72
2023/07/04 11:42:39;;;;;;;;;;;;;;;;;;5020502;28;92787;-72
2023/07/04 11:45:11;;;;;;;;;;;;;;;;;;5023028;28;92846;-70
2023/07/04 11:47:42;;;;;;;;;;;;;;;;;;5015888;28;93791;-71
2023/07/04 11:50:10;;;;;;;;;;;;;;;;;;5018068;28;92826;-72
2023/07/04 11:52:38;;;;;;;;;;;;;;;;;;5014981;27;93028;-72
2023/07/04 11:55:23;;;;;;;;;;;;;;;;;;5018008;28;93259;-71
2023/07/04 11:57:54;;;;;;;;;;;;;;;;;;4982373;27;94457;-72
2023/07/04 12:00:30;;;;;;;;;;;;;;;;;;5020660;28;92981;-71
2023/07/04 12:02:55;;;;;;;;;;;;;;;;;;5019926;28;93401;-71
2023/07/04 12:05:31;;;;;;;;;;;;;;;;;;5018970;28;92904;-71
2023/07/04 12:08:01;;;;;;;;;;;;;;;;;;5019445;27;92913;-72
2023/07/04 12:10:28;;;;;;;;;;;;;;;;;;5016893;28;92953;-72
2023/07/04 12:12:58;;;;;;;;;;;;;;;;;;5016610;28;93263;-71
2023/07/04 12:15:31;;;;;;;;;;;;;;;;;;4995104;28;97713;-72
2023/07/04 12:17:58;;;;;;;;;;;;;;;;;;5015138;27;92964;-71
2023/07/04 12:20:26;;;;;;;;;;;;;;;;;;5014844;28;92687;-71
2023/07/04 12:22:55;;;;;;;;;;;;;;;;;;5020710;27;95624;-71
2023/07/04 12:25:22;;;;;;;;;;;;;;;;;;5017511;28;93325;-72
2023/07/04 12:27:48;;;;;;;;;;;;;;;;;;5015769;28;92593;-72
2023/07/04 12:30:13;;;;;;;;;;;;;;;;;;5025208;28;92900;-73
2023/07/04 12:32:39;;;;;;;;;;;;;;;;;;5021614;28;92282;-73
2023/07/04 12:35:06;;;;;;;;;;;;;;;;;;5021103;28;92614;-72
2023/07/04 12:37:36;;;;;;;;;;;;;;;;;;5021518;27;94518;-71
2023/07/04 12:40:03;;;;;;;;;;;;;;;;;;5017884;28;92809;-72
2023/07/04 12:42:30;;;;;;;;;;;;;;;;;;5018595;27;93261;-71
2023/07/04 12:44:55;;;;;;;;;;;;;;;;;;5020932;28;92928;-73
2023/07/04 12:47:25;;;;;;;;;;;;;;;;;;5019295;28;94325;-72
2023/07/04 12:49:51;;;;;;;;;;;;;;;;;;5018989;27;95356;-71
2023/07/04 12:52:17;;;;;;;;;;;;;;;;;;5023887;28;94674;-71
2023/07/04 12:54:43;;;;;;;;;;;;;;;;;;5019335;27;92487;-71
2023/07/04 12:57:15;;;;;;;;;;;;;;;;;;5017411;28;93113;-73
2023/07/04 12:59:41;;;;;;;;;;;;;;;;;;5015151;27;93926;-72
2023/07/04 13:02:13;;;;;;;;;;;;;;;;;;5013278;28;93242;-73
2023/07/04 13:04:38;;;;;;;;;;;;;;;;;;5015876;28;92884;-73
2023/07/04 13:07:03;;;;;;;;;;;;;;;;;;5019648;28;92848;-72
2023/07/04 13:09:29;;;;;;;;;;;;;;;;;;5017655;28;93812;-71
2023/07/04 13:11:54;;;;;;;;;;;;;;;;;;5016404;28;93058;-72
2023/07/04 13:14:25;;;;;;;;;;;;;;;;;;5016750;28;92690;-72
2023/07/04 13:16:50;;;;;;;;;;;;;;;;;;5016099;28;93498;-71
2023/07/04 13:19:17;;;;;;;;;;;;;;;;;;5017913;28;93262;-71
2023/07/04 13:21:47;;;;;;;;;;;;;;;;;;5017458;28;92744;-71
2023/07/04 13:24:33;;;;;;;;;;;;;;;;;;5017316;27;92337;-72
2023/07/04 13:27:09;;;;;;;;;;;;;;;;;;5015527;28;94414;-70
2023/07/04 13:29:34;;;;;;;;;;;;;;;;;;5013257;28;93495;-72
2023/07/04 13:32:00;;;;;;;;;;;;;;;;;;5014401;28;95171;-73
2023/07/04 13:34:25;;;;;;;;;;;;;;;;;;5021134;28;93218;-72
2023/07/04 13:36:54;;;;;;;;;;;;;;;;;;5015958;28;94599;-70
2023/07/04 13:39:20;;;;;;;;;;;;;;;;;;5018652;28;93965;-70
2023/07/04 13:41:47;;;;;;;;;;;;;;;;;;5023273;28;92802;-70
2023/07/04 13:44:13;;;;;;;;;;;;;;;;;;5020125;28;92438;-72
2023/07/04 13:46:38;;;;;;;;;;;;;;;;;;5022963;28;92891;-71
2023/07/04 13:49:04;;;;;;;;;;;;;;;;;;5016803;28;92791;-71
2023/07/04 13:51:29;;;;;;;;;;;;;;;;;;5022889;27;94031;-70
2023/07/04 13:53:54;;;;;;;;;;;;;;;;;;5021241;27;92209;-70
2023/07/04 13:56:20;;;;;;;;;;;;;;;;;;5025345;28;92690;-71
2023/07/04 13:58:45;;;;;;;;;;;;;;;;;;5023094;28;93277;-72
2023/07/04 14:01:11;;;;;;;;;;;;;;;;;;5021980;28;94442;-72
2023/07/04 14:03:36;;;;;;;;;;;;;;;;;;5023418;27;92906;-71
2023/07/04 14:06:02;;;;;;;;;;;;;;;;;;5019248;28;92742;-71
2023/07/04 14:08:29;;;;;;;;;;;;;;;;;;5016582;28;92742;-71
2023/07/04 14:11:05;;;;;;;;;;;;;;;;;;5019119;28;93726;-71
2023/07/04 14:13:31;;;;;;;;;;;;;;;;;;5020429;28;94114;-71
2023/07/04 14:15:57;;;;;;;;;;;;;;;;;;5019598;27;93547;-72
2023/07/04 14:18:22;;;;;;;;;;;;;;;;;;5024042;28;96094;-71
2023/07/04 14:20:48;;;;;;;;;;;;;;;;;;5023933;28;92867;-71
2023/07/04 14:23:13;;;;;;;;;;;;;;;;;;5023641;28;93324;-71
2023/07/04 14:25:38;;;;;;;;;;;;;;;;;;5023359;28;92305;-70
2023/07/04 14:28:03;;;;;;;;;;;;;;;;;;5021371;28;92847;-70
2023/07/04 14:30:29;;;;;;;;;;;;;;;;;;5013574;28;93938;-71
2023/07/04 14:32:54;;;;;;;;;;;;;;;;;;5023681;27;91617;-70
2023/07/04 14:35:19;;;;;;;;;;;;;;;;;;5021812;28;93452;-70
2023/07/04 14:37:44;;;;;;;;;;;;;;;;;;5022979;28;92950;-70
2023/07/04 14:40:10;;;;;;;;;;;;;;;;;;5023369;28;93240;-71
2023/07/04 14:42:35;;;;;;;;;;;;;;;;;;5018435;28;93708;-71
2023/07/04 14:45:02;;;;;;;;;;;;;;;;;;5019679;27;94103;-71
2023/07/04 14:47:27;;;;;;;;;;;;;;;;;;5022589;27;92804;-72
2023/07/04 14:49:52;;;;;;;;;;;;;;;;;;5020575;28;92963;-71
2023/07/04 14:52:18;;;;;;;;;;;;;;;;;;5016593;28;92325;-71
2023/07/04 14:54:43;;;;;;;;;;;;;;;;;;5023136;27;94038;-70
2023/07/04 14:57:08;;;;;;;;;;;;;;;;;;5022311;27;92183;-71
2023/07/04 14:59:33;;;;;;;;;;;;;;;;;;5015224;28;92263;-71
2023/07/04 15:02:00;;;;;;;;;;;;;;;;;;5025173;28;92670;-71
2023/07/04 15:04:25;;;;;;;;;;;;;;;;;;5022929;27;94145;-71
2023/07/04 15:06:51;;;;;;;;;;;;;;;;;;5019412;27;95511;-71
2023/07/04 15:09:17;;;;;;;;;;;;;;;;;;5020852;28;94708;-71
2023/07/04 15:11:42;;;;;;;;;;;;;;;;;;5020465;28;92810;-71
2023/07/04 15:14:07;;;;;;;;;;;;;;;;;;5017148;28;93169;-71
2023/07/04 15:16:33;;;;;;;;;;;;;;;;;;5016184;28;94765;-73
2023/07/04 15:18:58;;;;;;;;;;;;;;;;;;5018449;28;92764;-73
2023/07/04 15:21:23;;;;;;;;;;;;;;;;;;5022210;28;92692;-71
2023/07/04 15:23:48;;;;;;;;;;;;;;;;;;5021716;28;92262;-72
2023/07/04 15:26:16;;;;;;;;;;;;;;;;;;5017103;27;96018;-72
2023/07/04 15:28:42;;;;;;;;;;;;;;;;;;5017334;28;94107;-73
2023/07/04 15:31:07;;;;;;;;;;;;;;;;;;5019061;28;92992;-72
2023/07/04 15:33:33;;;;;;;;;;;;;;;;;;5020452;28;92948;-72
2023/07/04 15:35:58;;;;;;;;;;;;;;;;;;5020753;27;93016;-72
2023/07/04 15:38:23;;;;;;;;;;;;;;;;;;5013137;28;92239;-71
2023/07/04 15:40:50;;;;;;;;;;;;;;;;;;5021091;28;92703;-72
2023/07/04 15:43:16;;;;;;;;;;;;;;;;;;5020166;27;94477;-72
2023/07/04 15:45:41;;;;;;;;;;;;;;;;;;5020064;27;93640;-72
2023/07/04 15:48:06;;;;;;;;;;;;;;;;;;5020197;28;92927;-72
2023/07/04 15:50:32;;;;;;;;;;;;;;;;;;5019673;28;92263;-71
2023/07/04 15:52:57;;;;;;;;;;;;;;;;;;5017008;28;95123;-72
2023/07/04 15:55:22;;;;;;;;;;;;;;;;;;5019390;27;93835;-71
2023/07/04 15:57:47;;;;;;;;;;;;;;;;;;5020784;28;92947;-72
2023/07/04 16:00:13;;;;;;;;;;;;;;;;;;5018099;27;94291;-73
2023/07/04 16:02:40;;;;;;;;;;;;;;;;;;5017350;28;93220;-72
2023/07/04 16:05:05;;;;;;;;;;;;;;;;;;5018643;27;92859;-72
2023/07/04 16:07:31;;;;;;;;;;;;;;;;;;5019164;28;92977;-72
2023/07/04 16:09:56;;;;;;;;;;;;;;;;;;5021232;28;92353;-72
2023/07/04 16:12:21;;;;;;;;;;;;;;;;;;5019455;28;92640;-72
2023/07/04 16:14:46;;;;;;;;;;;;;;;;;;5016890;28;92962;-71
2023/07/04 16:17:12;;;;;;;;;;;;;;;;;;5018404;28;93270;-72
2023/07/04 16:19:37;;;;;;;;;;;;;;;;;;5019479;28;93868;-74
2023/07/04 16:22:02;;;;;;;;;;;;;;;;;;5019195;28;93843;-72
2023/07/04 16:24:27;;;;;;;;;;;;;;;;;;5020290;28;92573;-72
2023/07/04 16:26:53;;;;;;;;;;;;;;;;;;5022212;28;94389;-72
2023/07/04 16:29:18;;;;;;;;;;;;;;;;;;5017695;28;92915;-72
2023/07/04 16:31:44;;;;;;;;;;;;;;;;;;5014505;28;95314;-73
2023/07/04 16:34:09;;;;;;;;;;;;;;;;;;5020663;28;92017;-72
2023/07/04 16:36:34;;;;;;;;;;;;;;;;;;5019705;28;92533;-72
2023/07/04 16:38:59;;;;;;;;;;;;;;;;;;5022488;28;92755;-72
2023/07/04 16:41:25;;;;;;;;;;;;;;;;;;5018613;28;96542;-72
2023/07/04 16:43:50;;;;;;;;;;;;;;;;;;5019137;27;92865;-73
2023/07/04 16:46:17;;;;;;;;;;;;;;;;;;5019738;28;94842;-73